Time;durP1;ratioP1;P1;durP2;ratioP2;P2;SDS_P1;SDS_P2;PMS_P1;PMS_P2;Temp;Humidity;BMP_temperature;BMP_pressure;BME280_temperature;BME280_humidity;BME280_pressure;Samples;Min_cycle;Max_cycle;Signal;HPM_P1;HPM_P2
2023/10/10 00:00:27;;;;;;;7.80;4.78;;;;;;;;;;5091917;28;20032;-79
2023/10/10 00:02:52;;;;;;;6.95;5.10;;;;;;;;;;5076498;28;20036;-79
2023/10/10 00:05:33;;;;;;;8.40;5.10;;;;;;;;;;5084423;28;20032;-79
2023/10/10 00:07:59;;;;;;;7.03;5.20;;;;;;;;;;5090620;28;20407;-78
2023/10/10 00:10:27;;;;;;;9.82;5.68;;;;;;;;;;5090845;28;20576;-78
2023/10/10 00:12:52;;;;;;;8.55;5.28;;;;;;;;;;5080457;28;20473;-79
2023/10/10 00:15:23;;;;;;;7.38;5.03;;;;;;;;;;5092034;28;20059;-79
2023/10/10 00:17:48;;;;;;;9.15;4.53;;;;;;;;;;5079961;28;20131;-78
2023/10/10 00:20:21;;;;;;;8.13;5.13;;;;;;;;;;5085793;28;20059;-79
2023/10/10 00:22:47;;;;;;;9.05;6.38;;;;;;;;;;5069698;28;20343;-79
2023/10/10 00:25:13;;;;;;;8.20;5.60;;;;;;;;;;5087252;28;20639;-79
2023/10/10 00:27:39;;;;;;;7.80;5.85;;;;;;;;;;5075973;22;20051;-86
2023/10/10 00:30:06;;;;;;;7.57;5.47;;;;;;;;;;5052364;28;20025;-87
2023/10/10 00:32:35;;;;;;;7.90;5.55;;;;;;;;;;5043283;28;20028;-86
2023/10/10 00:35:06;;;;;;;6.35;4.90;;;;;;;;;;5038423;28;20036;-87
2023/10/10 00:37:34;;;;;;;7.87;5.87;;;;;;;;;;5048239;28;20025;-86
2023/10/10 00:40:07;;;;;;;8.73;6.05;;;;;;;;;;5044236;28;20515;-86
2023/10/10 00:42:42;;;;;;;7.47;4.82;;;;;;;;;;5043877;28;20484;-86
2023/10/10 00:45:14;;;;;;;8.30;5.10;;;;;;;;;;5055906;28;20126;-86
2023/10/10 00:47:43;;;;;;;9.43;6.15;;;;;;;;;;5058892;28;20025;-86
2023/10/10 00:50:18;;;;;;;7.68;5.15;;;;;;;;;;5056929;28;20031;-85
2023/10/10 00:52:48;;;;;;;5.95;4.20;;;;;;;;;;5034155;28;20035;-87
2023/10/10 00:55:13;;;;;;;8.30;5.05;;;;;;;;;;5056459;28;20477;-86
2023/10/10 00:57:40;;;;;;;6.50;4.93;;;;;;;;;;5061738;28;20039;-87
2023/10/10 01:00:15;;;;;;;6.78;4.85;;;;;;;;;;5054964;28;20055;-88
2023/10/10 01:02:42;;;;;;;7.65;4.97;;;;;;;;;;5042441;28;20520;-87
2023/10/10 01:05:12;;;;;;;9.73;5.75;;;;;;;;;;5054445;28;20033;-87
2023/10/10 01:07:37;;;;;;;10.15;4.93;;;;;;;;;;5058728;28;20132;-88
2023/10/10 01:10:16;;;;;;;5.50;3.83;;;;;;;;;;5041625;28;20060;-87
2023/10/10 01:12:43;;;;;;;6.35;4.03;;;;;;;;;;5042390;28;20020;-88
2023/10/10 01:15:15;;;;;;;7.22;4.63;;;;;;;;;;5037006;28;20086;-86
2023/10/10 01:17:43;;;;;;;5.55;3.92;;;;;;;;;;5043448;28;20024;-87
2023/10/10 01:20:13;;;;;;;7.40;4.05;;;;;;;;;;5059226;28;20065;-87
2023/10/10 01:22:40;;;;;;;4.38;2.80;;;;;;;;;;5043990;28;20024;-86
2023/10/10 01:25:28;;;;;;;5.07;3.20;;;;;;;;;;5038006;28;20035;-86
2023/10/10 01:27:54;;;;;;;5.15;2.75;;;;;;;;;;5037493;28;20025;-87
2023/10/10 01:30:43;;;;;;;4.32;2.63;;;;;;;;;;5046791;28;20123;-86
2023/10/10 01:33:05;;;;;;;5.57;2.20;;;;;;;;;;5051895;28;20048;-86
2023/10/10 01:35:34;;;;;;;4.97;2.50;;;;;;;;;;5056646;28;20034;-86
2023/10/10 01:37:59;;;;;;;4.78;2.28;;;;;;;;;;5042326;28;20029;-86
2023/10/10 01:40:28;;;;;;;4.20;2.45;;;;;;;;;;5044188;28;20036;-87
2023/10/10 01:42:53;;;;;;;5.95;2.30;;;;;;;;;;5037538;28;20052;-86
2023/10/10 01:45:19;;;;;;;3.47;2.08;;;;;;;;;;5052266;28;20523;-86
2023/10/10 01:47:56;;;;;;;4.95;2.60;;;;;;;;;;5058186;28;20037;-86
2023/10/10 01:50:21;;;;;;;4.47;2.35;;;;;;;;;;5040827;28;20028;-86
2023/10/10 01:52:48;;;;;;;3.47;1.98;;;;;;;;;;5043322;28;20021;-86
2023/10/10 01:55:16;;;;;;;4.57;2.90;;;;;;;;;;5047535;28;20032;-86
2023/10/10 01:57:41;;;;;;;4.03;2.25;;;;;;;;;;5035115;28;20026;-86
2023/10/10 02:02:52;;;;;;;3.70;2.45;;;;;;;;;;5053904;28;20040;-87
2023/10/10 02:05:32;;;;;;;3.92;1.83;;;;;;;;;;5039897;28;20032;-87
2023/10/10 02:07:58;;;;;;;6.00;4.00;;;;;;;;;;5040995;28;20497;-87
2023/10/10 02:10:26;;;;;;;5.20;3.67;;;;;;;;;;5053828;28;20038;-87
2023/10/10 02:12:52;;;;;;;6.13;3.65;;;;;;;;;;5037554;28;20181;-88
2023/10/10 02:15:26;;;;;;;5.45;3.28;;;;;;;;;;5039175;28;20555;-87
2023/10/10 02:17:54;;;;;;;5.70;4.13;;;;;;;;;;5047472;28;20041;-86
2023/10/10 02:22:53;;;;;;;7.73;5.67;;;;;;;;;;5049935;28;20059;-86
2023/10/10 02:25:37;;;;;;;7.95;5.20;;;;;;;;;;5053288;28;20472;-87
2023/10/10 02:28:05;;;;;;;9.68;5.72;;;;;;;;;;5059967;28;20040;-86
2023/10/10 02:30:37;;;;;;;10.95;5.93;;;;;;;;;;5062264;28;20029;-86
2023/10/10 02:33:25;;;;;;;9.63;7.20;;;;;;;;;;5045146;28;20025;-87
2023/10/10 02:38:22;;;;;;;9.38;7.25;;;;;;;;;;5052507;28;20067;-86
2023/10/10 02:40:52;;;;;;;13.68;8.20;;;;;;;;;;5041301;28;20111;-86
2023/10/10 02:43:33;;;;;;;14.20;7.95;;;;;;;;;;5027993;28;20028;-86
2023/10/10 02:45:58;;;;;;;15.23;7.57;;;;;;;;;;5050613;28;20532;-86
2023/10/10 02:48:26;;;;;;;8.77;5.50;;;;;;;;;;5045973;28;20025;-86
2023/10/10 02:50:52;;;;;;;9.55;6.32;;;;;;;;;;5047683;28;20025;-86
2023/10/10 02:53:19;;;;;;;10.80;6.45;;;;;;;;;;5043024;28;20028;-86
2023/10/10 02:55:50;;;;;;;12.25;6.43;;;;;;;;;;5041246;28;20119;-86
2023/10/10 02:58:22;;;;;;;8.75;5.68;;;;;;;;;;5031285;28;20029;-86
2023/10/10 03:00:48;;;;;;;9.77;5.85;;;;;;;;;;5063380;28;20107;-86
2023/10/10 03:03:18;;;;;;;9.60;6.65;;;;;;;;;;5061319;28;20025;-86
2023/10/10 03:05:50;;;;;;;9.65;5.45;;;;;;;;;;5040825;28;20075;-86
2023/10/10 03:08:26;;;;;;;9.73;5.63;;;;;;;;;;5043216;28;20025;-87
2023/10/10 03:10:59;;;;;;;8.40;5.22;;;;;;;;;;5037310;28;20024;-86
2023/10/10 03:13:28;;;;;;;10.85;5.88;;;;;;;;;;5043864;28;20021;-89
2023/10/10 03:15:56;;;;;;;11.63;7.30;;;;;;;;;;5045828;28;20060;-87
2023/10/10 03:18:29;;;;;;;9.50;4.95;;;;;;;;;;5041983;28;20416;-86
2023/10/10 03:23:52;;;;;;;14.02;6.88;;;;;;;;;;5054521;28;20026;-84
2023/10/10 03:26:51;;;;;;;9.35;5.68;;;;;;;;;;5044503;28;20024;-84
2023/10/10 03:29:11;;;;;;;13.48;6.18;;;;;;;;;;5038087;28;20041;-84
2023/10/10 03:31:42;;;;;;;7.93;4.95;;;;;;;;;;5055540;28;20021;-85
2023/10/10 03:34:18;;;;;;;13.80;5.95;;;;;;;;;;5046952;28;20029;-87
2023/10/10 03:36:44;;;;;;;6.82;5.25;;;;;;;;;;5063194;28;20028;-86
2023/10/10 03:39:41;;;;;;;9.60;4.80;;;;;;;;;;5044000;28;20021;-86
2023/10/10 05:25:52;;;;;;;9.70;2.65;;;;;;;;;;5058790;28;20417;-88
2023/10/10 05:28:19;;;;;;;4.13;2.75;;;;;;;;;;5058398;28;20029;-87
2023/10/10 05:30:45;;;;;;;7.47;2.83;;;;;;;;;;5057366;28;20036;-88
2023/10/10 05:33:12;;;;;;;5.72;3.17;;;;;;;;;;5044510;28;20370;-88
2023/10/10 05:35:38;;;;;;;7.82;3.15;;;;;;;;;;5042691;28;20121;-90
2023/10/10 05:38:09;;;;;;;6.90;3.75;;;;;;;;;;5049231;28;20111;-87
2023/10/10 05:40:38;;;;;;;4.85;2.58;;;;;;;;;;5023128;28;20049;-87
2023/10/10 05:43:03;;;;;;;5.05;2.83;;;;;;;;;;5057823;28;20450;-87
2023/10/10 05:45:29;;;;;;;5.65;2.75;;;;;;;;;;5031100;28;20033;-88
2023/10/10 05:47:54;;;;;;;6.60;2.47;;;;;;;;;;5056577;28;20074;-88
2023/10/10 05:50:22;;;;;;;6.72;2.75;;;;;;;;;;5041758;28;20100;-89
2023/10/10 05:52:48;;;;;;;8.82;2.70;;;;;;;;;;5037983;28;20486;-87
2023/10/10 05:55:14;;;;;;;4.63;2.65;;;;;;;;;;5041258;28;20103;-88
2023/10/10 05:57:39;;;;;;;4.05;2.38;;;;;;;;;;5052626;28;20115;-90
2023/10/10 06:00:11;;;;;;;3.97;2.08;;;;;;;;;;5055895;28;20080;-88
2023/10/10 06:02:46;;;;;;;7.15;2.25;;;;;;;;;;5060844;28;20481;-88
2023/10/10 06:05:12;;;;;;;5.80;3.22;;;;;;;;;;5042520;28;20040;-88
2023/10/10 06:07:43;;;;;;;4.43;2.88;;;;;;;;;;5048209;28;20025;-87
2023/10/10 06:10:18;;;;;;;4.43;2.83;;;;;;;;;;5037747;28;20029;-88
2023/10/10 06:12:44;;;;;;;4.57;2.70;;;;;;;;;;5037944;28;20428;-87
2023/10/10 06:15:11;;;;;;;5.10;2.80;;;;;;;;;;5041362;28;20021;-87
2023/10/10 06:17:38;;;;;;;5.45;2.72;;;;;;;;;;5045442;28;20404;-88
2023/10/10 06:20:08;;;;;;;6.30;3.40;;;;;;;;;;5037393;28;20052;-89
2023/10/10 06:22:33;;;;;;;4.72;2.70;;;;;;;;;;5033098;28;20041;-87
2023/10/10 06:24:58;;;;;;;4.90;2.85;;;;;;;;;;5057571;28;20024;-88
2023/10/10 06:27:28;;;;;;;6.03;3.20;;;;;;;;;;5038848;28;20032;-87
2023/10/10 06:29:54;;;;;;;6.90;4.32;;;;;;;;;;5043517;28;20271;-87
2023/10/10 06:32:20;;;;;;;6.68;4.15;;;;;;;;;;5054843;28;20043;-87
2023/10/10 06:34:56;;;;;;;6.88;4.13;;;;;;;;;;5038288;28;20116;-87
2023/10/10 06:37:26;;;;;;;5.88;3.53;;;;;;;;;;5058607;28;20481;-87
2023/10/10 06:39:55;;;;;;;7.75;3.65;;;;;;;;;;5044399;28;20036;-87
2023/10/10 06:42:27;;;;;;;5.35;3.65;;;;;;;;;;5057571;28;20107;-87
2023/10/10 06:44:52;;;;;;;;;;;;;;;;;;5041454;28;20051;-87
2023/10/10 06:47:17;;;;;;;6.28;3.42;;;;;;;;;;5042576;28;19913;-87
2023/10/10 06:49:54;;;;;;;7.28;3.30;;;;;;;;;;5059098;28;20275;-90
2023/10/10 06:52:19;;;;;;;6.45;3.78;;;;;;;;;;5044556;28;20025;-88
2023/10/10 06:54:45;;;;;;;7.15;3.70;;;;;;;;;;5057085;28;20496;-87
2023/10/10 06:57:17;;;;;;;8.88;4.60;;;;;;;;;;5039336;28;20148;-87
2023/10/10 06:59:42;;;;;;;10.00;4.55;;;;;;;;;;5053702;28;20101;-87
2023/10/10 07:02:20;;;;;;;6.70;4.32;;;;;;;;;;5046660;28;20108;-87
2023/10/10 07:04:52;;;;;;;9.43;4.40;;;;;;;;;;5038895;28;20091;-87
2023/10/10 07:07:18;;;;;;;7.93;4.05;;;;;;;;;;5053047;28;20111;-88
2023/10/10 07:09:44;;;;;;;8.20;4.63;;;;;;;;;;5052839;28;20038;-88
2023/10/10 07:12:14;;;;;;;10.05;4.30;;;;;;;;;;5060959;28;20078;-89
2023/10/10 07:14:47;;;;;;;7.50;4.38;;;;;;;;;;5042609;28;20025;-88
2023/10/10 07:17:12;;;;;;;6.15;4.32;;;;;;;;;;5036142;28;20258;-88
2023/10/10 07:22:24;;;;;;;5.97;4.05;;;;;;;;;;5059629;28;20032;-87
2023/10/10 07:24:55;;;;;;;10.88;4.60;;;;;;;;;;5040331;28;20017;-87
2023/10/10 07:27:24;;;;;;;6.50;3.67;;;;;;;;;;5055885;28;20394;-82
2023/10/10 07:32:17;;;;;;;8.53;4.17;;;;;;;;;;5062800;28;20032;-87
2023/10/10 07:34:52;;;;;;;7.07;3.85;;;;;;;;;;5058825;28;20282;-87
2023/10/10 07:37:17;;;;;;;7.03;4.22;;;;;;;;;;5056335;28;20033;-87
2023/10/10 07:42:27;;;;;;;9.07;4.03;;;;;;;;;;5045493;28;20405;-87
2023/10/10 07:44:56;;;;;;;12.07;4.30;;;;;;;;;;5037522;28;20065;-87
2023/10/10 07:47:31;;;;;;;5.00;2.97;;;;;;;;;;5039265;28;20029;-88
2023/10/10 07:49:59;;;;;;;6.88;2.67;;;;;;;;;;5055349;28;20017;-88
2023/10/10 07:52:25;;;;;;;9.23;3.20;;;;;;;;;;5059185;28;20106;-87
2023/10/10 07:54:54;;;;;;;5.05;3.10;;;;;;;;;;5045826;28;20036;-87
2023/10/10 07:57:22;;;;;;;5.43;3.20;;;;;;;;;;5057858;28;20032;-87
2023/10/10 07:59:48;;;;;;;6.75;3.30;;;;;;;;;;5043337;28;20032;-88
2023/10/10 08:02:24;;;;;;;7.47;2.75;;;;;;;;;;5056270;28;20028;-89
2023/10/10 08:04:50;;;;;;;6.43;2.90;;;;;;;;;;5046389;28;20147;-87
2023/10/10 08:07:18;;;;;;;5.22;2.55;;;;;;;;;;5042403;28;20513;-87
2023/10/10 08:09:45;;;;;;;7.28;3.17;;;;;;;;;;5059178;28;20115;-83
2023/10/10 08:12:11;;;;;;;7.35;2.70;;;;;;;;;;5057143;28;20040;-83
2023/10/10 08:14:39;;;;;;;6.03;3.38;;;;;;;;;;5042590;28;20033;-83
2023/10/10 08:17:18;;;;;;;9.02;4.05;;;;;;;;;;5041069;28;20513;-83
2023/10/10 08:19:44;;;;;;;4.40;2.63;;;;;;;;;;5060837;28;20035;-83
2023/10/10 08:22:12;;;;;;;7.40;3.08;;;;;;;;;;5059567;28;20043;-84
2023/10/10 08:24:43;;;;;;;5.00;2.90;;;;;;;;;;5060483;28;20504;-83
2023/10/10 08:27:10;;;;;;;5.25;2.88;;;;;;;;;;5056603;28;20154;-83
2023/10/10 08:29:35;;;;;;;6.05;2.95;;;;;;;;;;5059152;28;20052;-83
2023/10/10 08:32:00;;;;;;;5.88;3.42;;;;;;;;;;5047239;28;20020;-83
2023/10/10 08:34:26;;;;;;;5.70;2.80;;;;;;;;;;5057767;28;20044;-83
2023/10/10 08:36:51;;;;;;;6.28;3.08;;;;;;;;;;5062650;28;20020;-83
2023/10/10 08:41:42;;;;;;;6.43;3.45;;;;;;;;;;5054675;28;20036;-83
2023/10/10 08:44:09;;;;;;;7.75;3.95;;;;;;;;;;5059348;28;20514;-83
2023/10/10 08:46:41;;;;;;;9.00;3.92;;;;;;;;;;5056710;28;20037;-83
2023/10/10 08:49:06;;;;;;;5.90;2.90;;;;;;;;;;5060146;28;20040;-83
2023/10/10 08:51:35;;;;;;;6.93;2.80;;;;;;;;;;5063451;28;20028;-83
2023/10/10 08:54:01;;;;;;;8.35;3.67;;;;;;;;;;5038624;28;20024;-83
2023/10/10 08:56:26;;;;;;;5.30;3.22;;;;;;;;;;5034724;28;20029;-83
2023/10/10 08:58:52;;;;;;;5.93;3.40;;;;;;;;;;5053226;28;20024;-84
2023/10/10 09:01:17;;;;;;;7.97;3.50;;;;;;;;;;5036886;28;20025;-83
2023/10/10 09:03:45;;;;;;;5.53;3.53;;;;;;;;;;5044178;28;20021;-83
2023/10/10 09:06:14;;;;;;;5.55;4.28;;;;;;;;;;5056286;28;20059;-83
2023/10/10 09:08:43;;;;;;;7.15;2.95;;;;;;;;;;5053395;28;20052;-83
2023/10/10 09:11:09;;;;;;;6.47;2.90;;;;;;;;;;5040830;28;20400;-82
2023/10/10 09:13:46;;;;;;;5.15;3.03;;;;;;;;;;5039432;28;20025;-82
2023/10/10 09:16:13;;;;;;;5.07;2.67;;;;;;;;;;5046491;28;20107;-83
2023/10/10 09:18:38;;;;;;;4.57;2.63;;;;;;;;;;5059657;28;20032;-82
2023/10/10 09:21:21;;;;;;;5.60;3.20;;;;;;;;;;5060299;28;20021;-83
2023/10/10 09:24:06;;;;;;;6.38;2.70;;;;;;;;;;5051074;28;20276;-82
2023/10/10 09:26:36;;;;;;;7.60;3.08;;;;;;;;;;5043758;28;20367;-82
2023/10/10 09:29:15;;;;;;;5.50;4.10;;;;;;;;;;5057020;28;20029;-83
2023/10/10 09:31:45;;;;;;;7.10;3.28;;;;;;;;;;5056003;28;20032;-83
2023/10/10 09:34:12;;;;;;;5.07;2.83;;;;;;;;;;5055202;28;20024;-83
2023/10/10 09:36:50;;;;;;;5.03;2.80;;;;;;;;;;5058285;28;20501;-83
2023/10/10 09:39:37;;;;;;;6.40;2.72;;;;;;;;;;5057759;28;20452;-82
2023/10/10 09:42:22;;;;;;;4.90;2.30;;;;;;;;;;5059420;28;20028;-83
2023/10/10 09:47:43;;;;;;;6.43;2.97;;;;;;;;;;5056135;28;20139;-82
2023/10/10 09:52:53;;;;;;;6.88;3.10;;;;;;;;;;5034860;28;20028;-82
2023/10/10 10:03:12;;;;;;;7.72;3.47;;;;;;;;;;5053114;28;20044;-82
2023/10/10 10:05:39;;;;;;;5.32;4.40;;;;;;;;;;5039373;28;20033;-82
2023/10/10 10:08:13;;;;;;;5.90;3.97;;;;;;;;;;5046390;28;20024;-81
2023/10/10 10:10:52;;;;;;;10.45;6.28;;;;;;;;;;5058471;28;20041;-82
2023/10/10 10:13:26;;;;;;;7.07;4.03;;;;;;;;;;5055439;28;20035;-82
2023/10/10 10:16:09;;;;;;;7.60;4.65;;;;;;;;;;5038129;28;20037;-83
2023/10/10 10:18:44;;;;;;;10.43;5.07;;;;;;;;;;5039352;28;20036;-83
2023/10/10 10:24:26;;;;;;;6.25;3.70;;;;;;;;;;5055788;28;20036;-83
2023/10/10 10:26:32;;;;;;;5.82;3.40;;;;;;;;;;5045259;28;20045;-83
2023/10/10 10:29:15;;;;;;;5.57;3.50;;;;;;;;;;5058020;28;20033;-82
2023/10/10 10:31:47;;;;;;;5.15;3.25;;;;;;;;;;5052739;28;20063;-82
2023/10/10 10:34:32;;;;;;;6.25;3.88;;;;;;;;;;5056085;28;20374;-83
2023/10/10 10:37:06;;;;;;;6.20;3.25;;;;;;;;;;5036374;28;20021;-83
2023/10/10 10:39:35;;;;;;;6.30;3.40;;;;;;;;;;5044862;28;20024;-83
2023/10/10 10:42:01;;;;;;;3.88;3.05;;;;;;;;;;5054228;28;20116;-83
2023/10/10 10:44:29;;;;;;;4.43;2.58;;;;;;;;;;5040494;28;20469;-83
2023/10/10 10:46:56;;;;;;;7.65;3.33;;;;;;;;;;5056162;28;20059;-82
2023/10/10 10:49:22;;;;;;;5.00;2.50;;;;;;;;;;5044376;28;20489;-82
2023/10/10 10:51:49;;;;;;;5.18;2.75;;;;;;;;;;5059487;28;20035;-83
2023/10/10 10:54:37;;;;;;;3.47;2.00;;;;;;;;;;5050034;28;20020;-83
2023/10/10 10:57:03;;;;;;;6.70;2.92;;;;;;;;;;5046914;28;20036;-82
2023/10/10 10:59:45;;;;;;;4.05;2.17;;;;;;;;;;5056360;28;20434;-82
2023/10/10 11:02:16;;;;;;;3.85;2.10;;;;;;;;;;5051972;28;20032;-81
2023/10/10 11:04:49;;;;;;;4.03;2.33;;;;;;;;;;5058425;28;20401;-82
2023/10/10 11:07:26;;;;;;;5.38;2.28;;;;;;;;;;5045612;28;20028;-82
2023/10/10 11:10:06;;;;;;;8.68;2.63;;;;;;;;;;5044654;28;20036;-82
2023/10/10 11:12:32;;;;;;;3.90;2.40;;;;;;;;;;5037837;28;20033;-82
2023/10/10 11:14:58;;;;;;;5.50;2.90;;;;;;;;;;5061878;28;20392;-82
2023/10/10 11:17:24;;;;;;;4.97;2.30;;;;;;;;;;5059310;28;20044;-81
2023/10/10 11:19:55;;;;;;;5.07;2.72;;;;;;;;;;5046137;28;20451;-81
2023/10/10 11:22:40;;;;;;;4.32;1.80;;;;;;;;;;5056935;28;20116;-82
2023/10/10 11:25:05;;;;;;;4.38;2.08;;;;;;;;;;5062414;28;20029;-82
2023/10/10 11:27:43;;;;;;;4.53;2.47;;;;;;;;;;5059163;28;20028;-82
2023/10/10 11:30:11;;;;;;;4.28;2.60;;;;;;;;;;5060041;28;20400;-82
2023/10/10 11:32:48;;;;;;;5.28;2.35;;;;;;;;;;5057908;28;20026;-82
2023/10/10 11:35:26;;;;;;;4.95;2.70;;;;;;;;;;5063197;28;20040;-82
2023/10/10 11:38:06;;;;;;;4.43;2.35;;;;;;;;;;5063587;28;20043;-82
2023/10/10 11:40:31;;;;;;;4.07;2.47;;;;;;;;;;5061316;28;20033;-82
2023/10/10 11:42:57;;;;;;;6.13;2.67;;;;;;;;;;5062103;28;20350;-82
2023/10/10 11:45:26;;;;;;;4.00;2.40;;;;;;;;;;5041734;28;20056;-82
2023/10/10 11:47:51;;;;;;;4.65;2.58;;;;;;;;;;5066497;28;20020;-82
2023/10/10 11:50:17;;;;;;;3.97;2.22;;;;;;;;;;5060241;28;20510;-82
2023/10/10 11:52:50;;;;;;;6.18;2.50;;;;;;;;;;5058412;28;20027;-82
2023/10/10 11:55:17;;;;;;;3.90;2.67;;;;;;;;;;5038850;28;20036;-82
2023/10/10 11:57:44;;;;;;;6.28;2.65;;;;;;;;;;5053915;28;20041;-82
2023/10/10 12:00:11;;;;;;;3.40;2.10;;;;;;;;;;5063004;28;20033;-81
2023/10/10 12:02:39;;;;;;;5.57;2.10;;;;;;;;;;5062295;28;20032;-82
2023/10/10 12:05:53;;;;;;;3.45;2.20;;;;;;;;;;5062136;28;20025;-82
2023/10/10 12:07:54;;;;;;;4.07;2.25;;;;;;;;;;5043874;28;20471;-82
2023/10/10 12:10:21;;;;;;;4.32;2.03;;;;;;;;;;5054830;28;20103;-82
2023/10/10 12:12:48;;;;;;;11.07;2.70;;;;;;;;;;5061463;28;20044;-81
2023/10/10 12:15:19;;;;;;;4.45;2.00;;;;;;;;;;5061849;28;20028;-82
2023/10/10 12:17:44;;;;;;;4.05;2.45;;;;;;;;;;5046567;28;20389;-82
2023/10/10 12:20:09;;;;;;;4.35;1.92;;;;;;;;;;5061146;28;20039;-82
2023/10/10 12:22:34;;;;;;;4.03;2.40;;;;;;;;;;5051448;28;20021;-82
2023/10/10 12:25:00;;;;;;;5.33;2.10;;;;;;;;;;5056419;28;20841;-82
2023/10/10 12:27:29;;;;;;;4.35;1.80;;;;;;;;;;5059327;28;20271;-82
2023/10/10 12:29:56;;;;;;;4.30;1.77;;;;;;;;;;5038649;28;20028;-82
2023/10/10 12:32:22;;;;;;;3.85;2.30;;;;;;;;;;5060343;28;20637;-82
2023/10/10 12:34:47;;;;;;;4.95;1.85;;;;;;;;;;5118757;23;20050;-78
2023/10/10 12:37:15;;;;;;;4.82;2.10;;;;;;;;;;5049212;28;20034;-78
2023/10/10 12:39:41;;;;;;;4.35;2.03;;;;;;;;;;5032824;28;20025;-78
2023/10/10 12:42:07;;;;;;;3.83;2.10;;;;;;;;;;5051707;28;20029;-78
2023/10/10 12:44:32;;;;;;;3.53;2.00;;;;;;;;;;5045120;28;20122;-78
2023/10/10 12:46:59;;;;;;;3.20;2.10;;;;;;;;;;5025691;28;20524;-78
2023/10/10 12:49:31;;;;;;;4.57;2.00;;;;;;;;;;5034913;28;20034;-78
2023/10/10 12:51:57;;;;;;;4.53;2.10;;;;;;;;;;5040957;28;20052;-78
2023/10/10 12:54:27;;;;;;;6.95;2.58;;;;;;;;;;5036225;28;20052;-77
2023/10/10 12:56:59;;;;;;;3.88;2.30;;;;;;;;;;5019433;28;20131;-78
2023/10/10 12:59:28;;;;;;;4.32;2.20;;;;;;;;;;5018399;28;20212;-78
2023/10/10 13:02:00;;;;;;;5.28;2.70;;;;;;;;;;5028030;28;20033;-77
2023/10/10 13:04:37;;;;;;;4.75;2.40;;;;;;;;;;5038852;28;20163;-78
2023/10/10 13:07:02;;;;;;;3.03;2.08;;;;;;;;;;5033303;28;20112;-78
2023/10/10 13:09:28;;;;;;;5.47;1.92;;;;;;;;;;5019495;28;20065;-77
2023/10/10 13:11:56;;;;;;;3.13;1.83;;;;;;;;;;5033525;28;20022;-78
2023/10/10 13:14:24;;;;;;;4.68;2.10;;;;;;;;;;5026378;28;20105;-78
2023/10/10 13:19:20;;;;;;;3.47;1.80;;;;;;;;;;5033406;28;20033;-78
2023/10/10 13:21:47;;;;;;;5.60;2.15;;;;;;;;;;5027694;28;20264;-78
2023/10/10 13:24:13;;;;;;;5.35;1.90;;;;;;;;;;5014599;28;20090;-78
2023/10/10 13:26:45;;;;;;;5.40;2.55;;;;;;;;;;5011871;28;20026;-78
2023/10/10 13:29:10;;;;;;;3.13;1.70;;;;;;;;;;5013714;28;20033;-78
2023/10/10 13:31:37;;;;;;;3.73;1.70;;;;;;;;;;5029709;28;20025;-78
2023/10/10 13:34:03;;;;;;;3.83;1.80;;;;;;;;;;5031587;28;20096;-78
2023/10/10 13:36:28;;;;;;;5.18;2.22;;;;;;;;;;5030474;28;20034;-78
2023/10/10 13:38:58;;;;;;;5.03;1.90;;;;;;;;;;5030252;28;20031;-78
2023/10/10 13:41:28;;;;;;;4.68;2.17;;;;;;;;;;5025852;28;20267;-78
2023/10/10 13:43:59;;;;;;;5.30;2.03;;;;;;;;;;5025819;28;20096;-79
2023/10/10 13:46:25;;;;;;;6.40;2.40;;;;;;;;;;5032074;28;20045;-76
2023/10/10 13:48:51;;;;;;;4.53;2.22;;;;;;;;;;5031555;28;20044;-78
2023/10/10 13:51:16;;;;;;;5.35;2.00;;;;;;;;;;5028470;28;20487;-77
2023/10/10 13:53:43;;;;;;;5.38;1.92;;;;;;;;;;5033495;28;20110;-78
2023/10/10 13:56:10;;;;;;;4.65;1.90;;;;;;;;;;5028588;28;20036;-77
2023/10/10 13:58:36;;;;;;;4.70;1.95;;;;;;;;;;5027967;28;20037;-78
2023/10/10 14:01:14;;;;;;;4.97;2.38;;;;;;;;;;5018347;28;20029;-79
2023/10/10 14:03:47;;;;;;;5.63;2.08;;;;;;;;;;5035125;28;20030;-78
2023/10/10 14:06:13;;;;;;;4.80;2.30;;;;;;;;;;5029576;28;20036;-77
2023/10/10 14:08:43;;;;;;;4.15;2.35;;;;;;;;;;5029320;28;20037;-78
2023/10/10 14:11:10;;;;;;;4.70;2.60;;;;;;;;;;5022790;28;20478;-78
2023/10/10 14:13:35;;;;;;;5.28;2.42;;;;;;;;;;5020103;28;20156;-78
2023/10/10 14:16:05;;;;;;;3.28;2.20;;;;;;;;;;5037493;28;20075;-78
2023/10/10 14:18:31;;;;;;;4.38;2.53;;;;;;;;;;5033155;28;20044;-78
2023/10/10 14:21:00;;;;;;;5.93;2.38;;;;;;;;;;5033042;28;20025;-78
2023/10/10 14:23:26;;;;;;;5.85;2.83;;;;;;;;;;5030021;28;20053;-78
2023/10/10 14:25:51;;;;;;;6.30;2.72;;;;;;;;;;5034514;28;20025;-77
2023/10/10 14:28:17;;;;;;;4.80;2.45;;;;;;;;;;5034273;28;20036;-76
2023/10/10 14:30:43;;;;;;;4.15;2.70;;;;;;;;;;5019597;28;20025;-77
2023/10/10 14:33:09;;;;;;;4.05;2.42;;;;;;;;;;5035719;28;20116;-78
2023/10/10 14:35:34;;;;;;;6.45;3.13;;;;;;;;;;5033378;28;20467;-78
2023/10/10 14:38:00;;;;;;;7.10;3.13;;;;;;;;;;5032815;28;20444;-78
2023/10/10 14:40:26;;;;;;;5.50;2.95;;;;;;;;;;5031723;28;20039;-78
2023/10/10 14:42:54;;;;;;;5.37;3.40;;;;;;;;;;5027656;28;20401;-77
2023/10/10 14:45:23;;;;;;;5.80;3.72;;;;;;;;;;5017541;28;20287;-76
2023/10/10 14:47:51;;;;;;;5.63;3.70;;;;;;;;;;5021498;28;20029;-78
2023/10/10 14:50:23;;;;;;;4.82;3.40;;;;;;;;;;5030852;28;20069;-76
2023/10/10 14:52:48;;;;;;;6.45;4.78;;;;;;;;;;5033004;28;20479;-77
2023/10/10 14:55:23;;;;;;;6.32;3.47;;;;;;;;;;5036198;28;20082;-78
2023/10/10 14:57:49;;;;;;;5.20;3.20;;;;;;;;;;5037693;28;20029;-77
2023/10/10 15:00:18;;;;;;;6.20;3.85;;;;;;;;;;5031902;28;20040;-77
2023/10/10 15:02:43;;;;;;;6.93;4.55;;;;;;;;;;5031952;28;20032;-78
2023/10/10 15:05:11;;;;;;;5.50;4.17;;;;;;;;;;5028830;28;20056;-79
2023/10/10 15:07:41;;;;;;;6.00;4.60;;;;;;;;;;5030544;28;20390;-80
2023/10/10 15:10:07;;;;;;;6.03;4.22;;;;;;;;;;5041460;28;20021;-80
2023/10/10 15:12:33;;;;;;;8.37;3.90;;;;;;;;;;5036438;28;20543;-80
2023/10/10 15:14:59;;;;;;;7.53;4.10;;;;;;;;;;5032836;28;20318;-80
2023/10/10 15:17:27;;;;;;;6.10;3.63;;;;;;;;;;5032233;28;20042;-78
2023/10/10 15:19:52;;;;;;;6.63;5.32;;;;;;;;;;5031258;28;20441;-79
2023/10/10 15:22:18;;;;;;;8.15;5.07;;;;;;;;;;5027790;28;20084;-79
2023/10/10 15:24:49;;;;;;;6.68;5.22;;;;;;;;;;5026101;28;20434;-77
2023/10/10 15:27:15;;;;;;;6.07;4.72;;;;;;;;;;5036780;28;20112;-80
2023/10/10 15:29:42;;;;;;;7.43;4.68;;;;;;;;;;5039062;28;20519;-80
2023/10/10 15:32:07;;;;;;;6.10;4.72;;;;;;;;;;5029922;28;20134;-79
2023/10/10 15:34:32;;;;;;;4.95;4.00;;;;;;;;;;5031740;28;20033;-80
2023/10/10 15:37:00;;;;;;;8.70;4.70;;;;;;;;;;5038112;28;20028;-80
2023/10/10 15:39:25;;;;;;;7.90;5.40;;;;;;;;;;5038710;28;20295;-79
2023/10/10 15:41:50;;;;;;;7.17;5.23;;;;;;;;;;5037490;28;20092;-79
2023/10/10 15:44:15;;;;;;;7.17;4.70;;;;;;;;;;5037707;28;20672;-80
2023/10/10 15:46:43;;;;;;;8.70;5.57;;;;;;;;;;5020758;28;20032;-80
2023/10/10 15:49:12;;;;;;;10.70;7.10;;;;;;;;;;5025516;28;20143;-80
2023/10/10 15:51:40;;;;;;;8.25;6.00;;;;;;;;;;5038033;28;20113;-80
2023/10/10 15:54:08;;;;;;;9.13;4.95;;;;;;;;;;5037926;28;20397;-80
2023/10/10 15:56:33;;;;;;;7.55;5.15;;;;;;;;;;5021249;28;20033;-81
2023/10/10 15:58:58;;;;;;;8.60;5.80;;;;;;;;;;5035740;28;20021;-80
2023/10/10 16:01:28;;;;;;;7.15;6.03;;;;;;;;;;5036244;28;20040;-80
2023/10/10 16:03:54;;;;;;;6.22;5.20;;;;;;;;;;5032595;28;20141;-81
2023/10/10 16:06:20;;;;;;;9.40;4.97;;;;;;;;;;5006584;28;20033;-80
2023/10/10 16:08:49;;;;;;;8.52;5.78;;;;;;;;;;5039029;28;20041;-81
2023/10/10 16:11:18;;;;;;;6.25;4.15;;;;;;;;;;5029229;28;20056;-79
2023/10/10 16:13:46;;;;;;;6.40;5.55;;;;;;;;;;5014835;28;20024;-80
2023/10/10 16:16:13;;;;;;;5.57;4.53;;;;;;;;;;5034270;28;20029;-79
2023/10/10 16:18:39;;;;;;;7.47;5.57;;;;;;;;;;5038992;28;20038;-80
2023/10/10 16:21:04;;;;;;;9.13;5.60;;;;;;;;;;5039484;28;20034;-80
2023/10/10 16:23:33;;;;;;;7.55;5.10;;;;;;;;;;5036278;28;20034;-79
2023/10/10 16:25:59;;;;;;;8.77;6.10;;;;;;;;;;5031974;28;20583;-79
2023/10/10 16:28:24;;;;;;;10.40;7.85;;;;;;;;;;5018075;28;20033;-79
2023/10/10 16:30:53;;;;;;;9.60;5.97;;;;;;;;;;5026498;28;20442;-80
2023/10/10 16:33:20;;;;;;;7.63;6.18;;;;;;;;;;5033950;28;20057;-80
2023/10/10 16:35:46;;;;;;;7.25;5.60;;;;;;;;;;5031868;28;20060;-79
2023/10/10 16:38:11;;;;;;;8.75;7.00;;;;;;;;;;5032370;28;20371;-79
2023/10/10 16:40:36;;;;;;;8.15;6.57;;;;;;;;;;5036464;28;20036;-78
2023/10/10 16:43:02;;;;;;;12.50;8.43;;;;;;;;;;5034024;28;20033;-80
2023/10/10 16:45:32;;;;;;;10.40;8.50;;;;;;;;;;5013880;28;20026;-79
2023/10/10 16:47:57;;;;;;;11.02;9.77;;;;;;;;;;5036437;28;20025;-80
2023/10/10 16:50:22;;;;;;;11.80;10.65;;;;;;;;;;5018263;28;20536;-78
2023/10/10 16:52:51;;;;;;;12.97;10.37;;;;;;;;;;5016318;28;20021;-79
2023/10/10 16:55:16;;;;;;;12.48;10.18;;;;;;;;;;5028606;28;20287;-80
2023/10/10 16:57:42;;;;;;;12.75;10.70;;;;;;;;;;5017437;28;20645;-79
2023/10/10 17:00:12;;;;;;;11.33;8.37;;;;;;;;;;5023296;28;20036;-80
2023/10/10 17:02:38;;;;;;;10.52;9.43;;;;;;;;;;5037203;28;20287;-79
2023/10/10 17:05:05;;;;;;;19.73;15.85;;;;;;;;;;5034651;28;20378;-79
2023/10/10 17:07:30;;;;;;;22.17;17.42;;;;;;;;;;5031754;28;20414;-79
2023/10/10 17:09:56;;;;;;;17.50;15.70;;;;;;;;;;5011289;28;20091;-79
2023/10/10 17:12:21;;;;;;;11.45;9.40;;;;;;;;;;5023569;28;20279;-77
2023/10/10 17:14:47;;;;;;;8.50;5.70;;;;;;;;;;5038355;28;20120;-79